Time;durP1;ratioP1;P1;durP2;ratioP2;P2;SDS_P1;SDS_P2;PMS_P1;PMS_P2;Temp;Humidity;BMP_temperature;BMP_pressure;BME280_temperature;BME280_humidity;BME280_pressure;Samples;Min_cycle;Max_cycle;Signal;HPM_P1;HPM_P2
2023/06/11 00:02:08;;;;;;;16.67;3.53;;;12.90;99.90;;;11.74;95.39;101833.13;4984402;28;20681;-75
2023/06/11 00:04:34;;;;;;;14.43;3.70;;;12.90;99.90;;;11.74;94.44;101840.19;4969357;28;20038;-75
2023/06/11 00:07:05;;;;;;;11.15;3.60;;;12.90;99.90;;;11.70;94.48;101837.66;4939898;28;20455;-75
2023/06/11 00:09:31;;;;;;;11.00;3.88;;;12.80;99.90;;;11.70;94.93;101844.69;4953173;28;20032;-76
2023/06/11 00:11:57;;;;;;;13.30;3.45;;;12.80;99.90;;;11.65;96.05;101836.91;4963153;28;20416;-76
2023/06/11 00:14:23;;;;;;;10.90;3.35;;;12.90;99.90;;;11.65;96.11;101833.44;4949730;28;20030;-76
2023/06/11 00:16:50;;;;;;;10.95;3.40;;;12.80;99.90;;;11.59;95.70;101845.03;4984330;28;20046;-76
2023/06/11 00:19:20;;;;;;;15.65;3.33;;;12.80;99.90;;;11.58;96.00;101838.06;4956224;28;20054;-76
2023/06/11 00:21:48;;;;;;;15.15;3.90;;;12.80;99.90;;;11.62;95.49;101839.69;4951158;28;20039;-76
2023/06/11 00:24:15;;;;;;;17.55;4.10;;;12.80;99.90;;;11.57;95.11;101841.59;4980434;28;20034;-76
2023/06/11 00:26:42;;;;;;;15.68;3.67;;;12.80;99.90;;;11.55;95.42;101838.13;4982435;28;20034;-76
2023/06/11 00:29:08;;;;;;;16.30;3.72;;;12.70;99.90;;;11.53;94.77;101829.41;5001726;28;20511;-75
2023/06/11 00:31:35;;;;;;;13.98;3.58;;;12.70;99.90;;;11.52;94.71;101834.75;4952083;28;20393;-75
2023/06/11 00:34:01;;;;;;;13.90;3.70;;;12.70;99.90;;;11.47;94.92;101845.47;4974351;28;20468;-75
2023/06/11 00:36:27;;;;;;;12.93;3.20;;;12.60;99.90;;;11.48;94.81;101849.81;4969910;28;20044;-76
2023/06/11 00:38:54;;;;;;;14.32;3.30;;;12.60;99.90;;;11.43;94.65;101847.31;4965282;28;20039;-75
2023/06/11 00:41:20;;;;;;;11.73;3.13;;;12.60;99.90;;;11.42;94.18;101850.00;4987032;28;20051;-74
2023/06/11 00:43:52;;;;;;;8.68;2.92;;;12.60;99.90;;;11.36;94.13;101842.28;4951061;28;20038;-76
2023/06/11 00:46:21;;;;;;;11.57;3.05;;;12.50;99.90;;;11.28;94.63;101843.41;4965491;28;20065;-75
2023/06/11 00:48:48;;;;;;;15.95;3.47;;;12.50;99.90;;;11.28;94.48;101846.03;4971257;28;20047;-76
2023/06/11 00:51:20;;;;;;;15.00;3.47;;;12.40;99.90;;;11.23;94.43;101845.34;4982285;28;20050;-75
2023/06/11 00:53:47;;;;;;;9.73;3.45;;;12.40;99.90;;;11.15;94.14;101842.06;4982736;28;20114;-75
2023/06/11 00:56:17;;;;;;;10.00;3.22;;;12.30;99.90;;;11.13;94.33;101843.03;4961849;28;20087;-75
2023/06/11 00:58:45;;;;;;;12.77;3.80;;;12.30;99.90;;;11.06;94.78;101843.22;4978259;28;20666;-75
2023/06/11 01:01:17;;;;;;;15.25;3.58;;;12.20;99.90;;;11.05;95.67;101848.53;4981556;28;20042;-76
2023/06/11 01:03:43;;;;;;;9.82;3.10;;;12.20;99.90;;;11.02;95.87;101838.94;4983208;28;20093;-75
2023/06/11 01:06:19;;;;;;;12.70;3.55;;;12.10;99.90;;;10.98;96.19;101844.34;4955100;28;20051;-76
2023/06/11 01:08:55;;;;;;;9.57;3.20;;;12.10;99.90;;;10.96;97.28;101841.75;4982675;28;20050;-75
2023/06/11 01:11:21;;;;;;;7.65;2.85;;;12.10;99.90;;;10.94;98.18;101851.47;4966756;28;20037;-76
2023/06/11 01:13:48;;;;;;;11.32;3.33;;;12.10;99.90;;;10.96;97.66;101854.94;4981658;28;20122;-76
2023/06/11 01:16:44;;;;;;;11.38;3.40;;;12.10;99.90;;;10.98;98.00;101855.75;4984090;28;20034;-76
2023/06/11 01:19:31;;;;;;;20.73;3.53;;;12.10;99.90;;;10.95;98.70;101853.22;4955538;28;20209;-76
2023/06/11 01:22:05;;;;;;;12.90;3.47;;;12.10;99.90;;;10.95;100.00;101852.34;4948773;28;20043;-75
2023/06/11 01:25:38;;;;;;;18.13;3.38;;;12.20;99.90;;;10.97;100.00;101863.69;4976485;28;20049;-76
2023/06/11 01:28:17;;;;;;;12.05;3.47;;;12.20;99.90;;;10.99;100.00;101868.03;4888958;29;20052;-76
2023/06/11 01:30:50;;;;;;;19.80;3.70;;;12.20;99.90;;;10.99;100.00;101859.25;4919660;28;20043;-75
2023/06/11 01:33:18;;;;;;;13.68;3.20;;;12.20;99.90;;;11.02;100.00;101875.84;4943071;28;20031;-75
2023/06/11 01:35:46;;;;;;;12.32;3.75;;;12.30;99.90;;;11.04;100.00;101867.91;4970433;28;20037;-75
2023/06/11 01:38:13;;;;;;;16.33;3.55;;;12.30;99.90;;;11.11;100.00;101866.78;4962299;28;20496;-75
2023/06/11 01:40:39;;;;;;;12.05;3.58;;;12.30;99.90;;;11.10;100.00;101865.09;4987448;28;21586;-76
2023/06/11 01:43:05;;;;;;;24.90;3.47;;;12.30;99.90;;;11.12;100.00;101865.88;4939924;28;20031;-76
2023/06/11 01:45:32;;;;;;;10.57;3.58;;;12.30;99.90;;;11.12;100.00;101865.00;4971388;28;20582;-76
2023/06/11 01:48:00;;;;;;;12.70;3.38;;;12.30;99.90;;;11.09;100.00;101874.75;4985477;28;20141;-76
2023/06/11 01:50:25;;;;;;;17.17;3.30;;;12.30;99.90;;;11.11;100.00;101866.78;4982372;28;20581;-75
2023/06/11 01:52:51;;;;;;;11.57;3.72;;;12.30;99.90;;;11.09;100.00;101871.25;4971269;28;20043;-77
2023/06/11 01:55:17;;;;;;;10.23;3.40;;;12.30;99.90;;;11.07;100.00;101878.34;4956723;28;20034;-76
2023/06/11 01:57:43;;;;;;;21.20;3.80;;;12.20;99.90;;;11.04;100.00;101874.03;4969696;28;20491;-76
2023/06/11 02:00:11;;;;;;;11.85;3.63;;;12.20;99.90;;;11.04;100.00;101876.66;4985957;28;20061;-75
2023/06/11 02:02:43;;;;;;;9.77;3.40;;;12.20;99.90;;;11.02;100.00;101875.00;4969808;28;20116;-75
2023/06/11 02:05:09;;;;;;;14.75;3.58;;;12.20;99.90;;;11.03;100.00;101884.59;4988977;28;20637;-76
2023/06/11 02:07:36;;;;;;;15.15;3.97;;;12.20;99.90;;;10.98;100.00;101873.34;4941904;28;20146;-75
2023/06/11 02:10:02;;;;;;;12.50;3.25;;;12.10;99.90;;;10.95;100.00;101871.69;4987266;28;20447;-75
2023/06/11 02:12:27;;;;;;;16.60;4.47;;;12.10;99.90;;;10.94;100.00;101871.72;4953076;28;20027;-76
2023/06/11 02:14:53;;;;;;;16.08;3.35;;;12.10;99.90;;;10.92;100.00;101868.25;4955770;28;20137;-75
2023/06/11 02:17:19;;;;;;;14.20;3.70;;;12.10;99.90;;;10.94;100.00;101871.72;4940447;28;20042;-76
2023/06/11 02:19:45;;;;;;;10.20;3.00;;;12.10;99.90;;;10.89;99.88;101874.50;4985859;28;20046;-75
2023/06/11 02:22:11;;;;;;;;;;;12.10;99.90;;;10.81;99.90;101872.06;4961880;28;20036;-75
2023/06/11 02:24:36;;;;;;;13.25;3.30;;;12.00;99.90;;;10.75;99.83;101866.97;4985872;28;20290;-75
2023/06/11 02:27:02;;;;;;;;;;;12.00;99.90;;;10.66;100.00;101862.84;4984053;28;20047;-75
2023/06/11 02:29:28;;;;;;;19.30;4.05;;;11.90;99.90;;;10.68;100.00;101868.06;4987224;28;20480;-75
2023/06/11 02:31:54;;;;;;;21.85;3.95;;;11.90;99.90;;;10.68;100.00;101868.06;4985564;28;20079;-75
2023/06/11 02:34:20;;;;;;;;;;;11.90;99.90;;;10.63;100.00;101870.84;5001517;28;20026;-75
2023/06/11 02:36:46;;;;;;;11.57;3.40;;;11.80;99.90;;;10.59;100.00;101869.19;4983629;28;19917;-76
2023/06/11 02:39:11;;;;;;;15.93;3.50;;;11.80;99.90;;;10.58;100.00;101880.66;4955471;28;20380;-75
2023/06/11 02:41:37;;;;;;;12.23;3.65;;;11.70;99.90;;;10.56;100.00;101876.31;4940441;28;20035;-76
2023/06/11 02:44:03;;;;;;;21.27;3.90;;;11.70;99.90;;;10.57;100.00;101871.00;4985875;28;20115;-75
2023/06/11 02:46:29;;;;;;;15.18;3.35;;;11.70;99.90;;;10.58;100.00;101879.75;4954325;28;20035;-75
2023/06/11 02:48:55;;;;;;;14.23;3.80;;;11.70;99.90;;;10.56;99.59;101873.69;4967599;28;20039;-75
2023/06/11 02:51:20;;;;;;;11.93;4.13;;;11.70;99.90;;;10.57;99.10;101875.41;4971023;28;20126;-75
2023/06/11 02:53:46;;;;;;;;;;;11.70;99.90;;;10.51;99.35;101880.84;4968696;28;20023;-75
2023/06/11 02:56:12;;;;;;;12.02;3.50;;;11.60;99.90;;;10.52;99.92;101885.19;4985507;28;19968;-75
2023/06/11 02:58:38;;;;;;;;;;;11.60;99.90;;;10.45;100.00;101874.84;4976232;28;20134;-76
2023/06/11 03:01:03;;;;;;;16.42;3.40;;;11.60;99.90;;;10.47;100.00;101887.97;4984469;28;19918;-75
2023/06/11 03:03:29;;;;;;;16.40;4.38;;;11.60;99.90;;;10.43;100.00;101884.56;4956727;28;20472;-75
2023/06/11 03:05:56;;;;;;;14.43;3.45;;;11.60;99.90;;;10.42;100.00;101885.47;4938760;28;20085;-76
2023/06/11 03:08:22;;;;;;;17.63;3.47;;;11.60;99.90;;;10.42;100.00;101885.47;4966789;28;20523;-75
2023/06/11 03:10:47;;;;;;;15.93;4.15;;;11.60;99.90;;;10.45;100.00;101880.13;4956070;28;20039;-74
2023/06/11 03:13:13;;;;;;;16.80;3.80;;;11.60;99.90;;;10.49;100.00;101891.41;4983721;28;20050;-75
2023/06/11 03:15:39;;;;;;;14.65;3.58;;;11.60;99.90;;;10.53;100.00;101886.94;4985199;28;20105;-75
2023/06/11 03:18:05;;;;;;;19.20;4.15;;;11.60;99.90;;;10.57;100.00;101888.59;4922472;28;20557;-76
2023/06/11 03:20:31;;;;;;;12.70;3.85;;;11.70;99.90;;;10.63;99.82;101888.41;4982071;28;20069;-75
2023/06/11 03:22:57;;;;;;;;;;;11.70;99.90;;;10.65;100.00;101887.47;4951682;28;20031;-75
2023/06/11 03:25:23;;;;;;;15.55;3.70;;;11.70;99.90;;;10.70;100.00;101887.31;4956052;28;19914;-76
2023/06/11 03:27:49;;;;;;;16.83;4.05;;;11.80;99.90;;;10.80;100.00;101891.44;4941538;28;20039;-75
2023/06/11 03:30:15;;;;;;;16.02;3.90;;;11.90;99.90;;;10.89;99.31;101895.56;4984868;28;20031;-75
2023/06/11 03:32:41;;;;;;;13.23;3.67;;;12.00;99.90;;;10.99;99.34;101890.88;4983826;28;20518;-75
2023/06/11 03:35:07;;;;;;;14.30;4.20;;;12.00;99.90;;;11.11;98.13;101893.16;4952913;28;20106;-75
2023/06/11 03:37:32;;;;;;;15.10;3.78;;;12.20;99.90;;;11.25;97.69;101903.25;4983922;28;20027;-75
2023/06/11 03:39:59;;;;;;;12.38;4.05;;;12.90;99.90;;;11.95;96.72;101905.47;4955863;28;20400;-75
2023/06/11 03:42:25;;;;;;;13.57;3.72;;;14.40;99.90;;;13.51;92.74;101908.59;4984844;28;20034;-76
2023/06/11 03:44:53;;;;;;;16.95;3.22;;;15.80;99.90;;;15.12;85.71;101922.84;4970821;28;20030;-75
2023/06/11 03:47:18;;;;;;;17.63;4.07;;;17.20;99.90;;;16.61;77.53;101927.91;4985235;28;20495;-75
2023/06/11 03:49:44;;;;;;;12.15;3.30;;;18.40;99.90;;;17.86;71.02;101923.69;4974423;28;20030;-75
2023/06/11 03:52:10;;;;;;;;;;;18.50;99.90;;;19.00;66.95;101929.22;4988301;28;20377;-75
2023/06/11 03:54:36;;;;;;;12.18;3.22;;;20.40;99.90;;;20.00;62.79;101932.56;4956818;28;19914;-75
2023/06/11 03:57:02;;;;;;;11.35;3.67;;;21.30;99.90;;;20.81;60.19;101935.03;4948784;28;20043;-75
2023/06/11 03:59:28;;;;;;;11.63;3.30;;;22.10;99.90;;;21.67;58.12;101936.00;4983928;28;20043;-75
2023/06/11 04:01:54;;;;;;;6.97;2.85;;;22.80;99.90;;;22.40;55.95;101937.63;4984110;28;20641;-75
2023/06/11 04:04:20;;;;;;;;;;;22.80;99.90;;;23.26;54.13;101948.75;4985280;28;20439;-75
2023/06/11 04:06:45;;;;;;;10.55;3.10;;;24.10;98.80;;;23.85;52.41;101953.78;4955173;28;19921;-75
2023/06/11 04:09:11;;;;;;;;;;;24.10;99.30;;;24.58;50.94;101967.34;4984541;28;20043;-76
2023/06/11 04:11:37;;;;;;;7.97;3.20;;;25.30;98.10;;;25.30;49.33;101965.56;4981694;28;19914;-75
2023/06/11 04:14:02;;;;;;;;;;;25.30;97.70;;;26.00;47.99;101985.25;4956101;28;20038;-75
2023/06/11 04:16:28;;;;;;;9.65;3.08;;;26.30;94.80;;;26.40;46.62;101986.94;4953945;28;19928;-76
2023/06/11 04:18:54;;;;;;;;;;;26.30;95.80;;;27.13;45.43;101999.84;4953159;28;20539;-76
2023/06/11 04:21:20;;;;;;;13.15;3.30;;;27.30;94.60;;;27.72;44.32;102003.06;4953210;28;19918;-75
2023/06/11 04:23:46;;;;;;;;;;;27.30;94.60;;;28.45;43.18;102016.44;4965074;28;20043;-76
2023/06/11 04:26:15;;;;;;;13.10;2.75;;;28.30;92.80;;;28.96;41.99;102022.03;4974705;28;19914;-75
2023/06/11 04:28:44;;;;;;;12.85;2.90;;;28.80;92.30;;;29.53;41.14;102035.88;4984665;28;20054;-75
2023/06/11 04:31:11;;;;;;;12.02;3.15;;;29.00;91.40;;;29.39;40.76;102036.50;4968031;28;20101;-76
2023/06/11 04:33:37;;;;;;;11.13;2.95;;;29.30;90.30;;;29.78;40.21;102046.84;4982640;28;20093;-76
2023/06/11 04:36:07;;;;;;;8.27;2.78;;;29.30;90.60;;;29.97;39.27;102041.09;4950307;28;20050;-75
2023/06/11 04:38:34;;;;;;;12.55;2.88;;;29.20;86.10;;;29.49;38.85;102047.25;4984340;28;20038;-75
2023/06/11 04:41:00;;;;;;;16.35;3.10;;;29.30;87.60;;;29.79;38.24;102053.97;4952719;28;20118;-75
2023/06/11 04:43:27;;;;;;;9.38;3.22;;;29.50;88.80;;;30.37;37.92;102055.78;4997149;28;20432;-76
2023/06/11 04:45:56;;;;;;;8.18;4.45;;;29.30;86.50;;;30.11;37.98;102060.47;4954706;28;20117;-75
2023/06/11 04:48:24;;;;;;;17.88;6.00;;;29.30;85.80;;;30.02;37.91;102065.91;4973087;28;20621;-75
2023/06/11 04:50:51;;;;;;;14.02;6.65;;;29.50;84.60;;;30.45;36.91;102066.63;4985283;28;20396;-76
2023/06/11 04:53:24;;;;;;;14.38;7.70;;;29.80;86.80;;;31.27;36.21;102085.56;4936302;28;20051;-77
2023/06/11 04:55:51;;;;;;;13.73;7.85;;;30.00;85.40;;;31.61;35.80;102083.56;4982093;28;20042;-76
2023/06/11 04:58:21;;;;;;;13.13;9.40;;;30.20;82.80;;;31.48;35.61;102087.69;4984978;28;20043;-76
2023/06/11 05:00:48;;;;;;;10.95;9.23;;;30.60;83.30;;;32.24;34.43;102093.38;4976525;28;20046;-76
2023/06/11 05:03:18;;;;;;;14.38;10.85;;;30.40;83.10;;;31.97;34.72;102092.03;4974480;28;20023;-76
2023/06/11 05:05:51;;;;;;;15.05;11.30;;;30.40;81.90;;;32.01;34.41;102095.25;4977775;28;20117;-76
2023/06/11 05:08:24;;;;;;;18.33;11.45;;;31.00;82.90;;;33.09;32.94;102099.69;4937855;28;20035;-75
2023/06/11 05:10:51;;;;;;;16.98;11.35;;;30.70;82.50;;;32.16;34.13;102108.94;4975219;28;20086;-76
2023/06/11 05:13:26;;;;;;;16.15;10.30;;;31.00;80.90;;;32.61;33.29;102113.56;4986956;28;20066;-76
2023/06/11 05:15:57;;;;;;;16.67;11.38;;;30.90;82.10;;;32.88;33.25;102114.00;4950125;28;20171;-75
2023/06/11 05:18:26;;;;;;;14.98;12.90;;;31.00;79.90;;;33.18;32.99;102119.53;4984903;28;20034;-76
2023/06/11 05:20:53;;;;;;;15.77;11.38;;;31.40;81.40;;;33.98;31.79;102126.03;4954689;28;20043;-76
2023/06/11 05:23:28;;;;;;;20.23;12.13;;;31.30;78.80;;;33.02;32.56;102123.22;4986760;28;20045;-76
2023/06/11 05:25:58;;;;;;;18.73;12.95;;;31.10;78.60;;;32.81;32.54;102127.53;4988180;28;20061;-76
2023/06/11 05:28:24;;;;;;;14.05;12.50;;;30.60;79.30;;;32.22;33.47;102119.97;4988839;28;20130;-75
2023/06/11 05:30:50;;;;;;;11.75;9.73;;;30.60;79.50;;;32.14;33.75;102121.91;4973027;28;20050;-76
2023/06/11 05:33:20;;;;;;;13.98;12.18;;;30.30;78.10;;;32.05;33.01;102127.44;4985370;28;20054;-77
2023/06/11 05:35:47;;;;;;;18.85;12.10;;;30.00;79.50;;;31.68;33.36;102119.94;4954031;28;20035;-76
2023/06/11 05:38:13;;;;;;;15.32;12.35;;;30.10;78.10;;;31.13;33.88;102109.91;4985605;28;20038;-75
2023/06/11 05:40:39;;;;;;;18.00;12.40;;;30.40;78.90;;;32.35;32.74;102130.28;4972615;28;20221;-75
2023/06/11 05:43:06;;;;;;;17.70;12.75;;;30.30;77.80;;;31.97;32.82;102132.06;4980168;28;20039;-75
2023/06/11 05:45:33;;;;;;;16.08;13.55;;;30.20;78.50;;;31.50;33.22;102122.06;4988082;28;20041;-77
2023/06/11 05:47:59;;;;;;;18.08;12.35;;;30.50;77.50;;;32.37;32.27;102139.13;4985300;28;20469;-76
2023/06/11 05:50:25;;;;;;;25.83;12.27;;;30.90;78.50;;;33.32;30.91;102147.84;4957869;28;20183;-76
2023/06/11 05:52:51;;;;;;;14.93;12.60;;;31.10;76.70;;;33.48;30.52;102148.50;4955294;28;20159;-75
2023/06/11 05:55:19;;;;;;;12.70;11.45;;;31.60;74.70;;;33.79;30.73;102157.53;4981642;28;20043;-76
2023/06/11 05:57:45;;;;;;;15.40;13.25;;;31.70;75.00;;;33.44;31.10;102149.09;4946220;28;20026;-75
2023/06/11 06:00:12;;;;;;;17.42;11.93;;;31.70;74.50;;;32.79;30.84;102145.97;4958277;28;20058;-77
2023/06/11 06:02:39;;;;;;;15.68;11.75;;;31.50;74.10;;;31.73;32.17;102125.72;4959182;28;20133;-75
2023/06/11 06:05:06;;;;;;;11.73;10.50;;;31.20;74.50;;;32.31;31.99;102136.28;4976879;28;20030;-75
2023/06/11 06:07:32;;;;;;;17.63;10.88;;;31.70;76.90;;;33.56;30.00;102149.44;4983236;28;20077;-75
2023/06/11 06:09:58;;;;;;;11.20;9.93;;;32.30;72.10;;;33.78;29.95;102153.09;4969235;28;20038;-77
2023/06/11 06:12:24;;;;;;;19.98;10.43;;;31.50;70.50;;;31.66;30.96;102130.13;4987284;28;20031;-76
2023/06/11 06:14:50;;;;;;;13.85;9.27;;;31.80;72.90;;;32.65;30.72;102142.16;4986507;28;20027;-75
2023/06/11 06:17:15;;;;;;;14.20;9.88;;;31.50;70.40;;;31.66;30.66;102131.00;4957037;28;20110;-74
2023/06/11 06:19:41;;;;;;;13.57;10.20;;;31.20;71.20;;;31.37;31.75;102130.75;4985388;28;20562;-76
2023/06/11 06:22:07;;;;;;;18.77;9.25;;;31.00;71.40;;;31.34;31.32;102126.50;4969063;28;20654;-76
2023/06/11 06:24:33;;;;;;;11.75;9.88;;;30.80;73.60;;;31.27;32.30;102115.47;4987010;28;20654;-76
2023/06/11 06:26:59;;;;;;;11.30;8.68;;;31.00;71.80;;;31.68;31.42;102131.69;4969995;28;20480;-77
2023/06/11 06:29:28;;;;;;;9.98;6.68;;;30.90;72.30;;;31.35;31.09;102127.34;4954966;28;20097;-76
2023/06/11 06:31:55;;;;;;;9.70;8.80;;;30.30;72.50;;;30.48;32.74;102099.94;4955559;28;20034;-75
2023/06/11 06:34:21;;;;;;;12.80;8.65;;;31.20;72.50;;;32.02;31.08;102118.75;4956242;28;20041;-76
2023/06/11 06:36:46;;;;;;;13.27;8.48;;;31.80;72.10;;;32.71;29.90;102132.41;4955297;28;20035;-76
2023/06/11 06:39:12;;;;;;;11.27;8.98;;;32.10;71.00;;;32.85;30.03;102139.78;4953272;28;20120;-76
2023/06/11 06:41:38;;;;;;;12.95;8.20;;;32.10;68.00;;;31.59;30.75;102113.66;4951949;28;20491;-76
2023/06/11 06:44:04;;;;;;;8.02;5.95;;;32.00;68.50;;;31.90;30.14;102126.44;4956000;28;22855;-75
2023/06/11 06:46:30;;;;;;;10.77;6.32;;;31.70;69.10;;;31.46;30.97;102119.69;4970357;28;20404;-76
2023/06/11 06:48:56;;;;;;;7.03;4.65;;;31.40;69.90;;;30.61;31.61;102100.25;4955905;28;20496;-75
2023/06/11 06:51:22;;;;;;;9.30;5.88;;;31.30;71.00;;;31.36;31.47;102119.03;4984575;28;20071;-75
2023/06/11 06:53:47;;;;;;;7.63;6.55;;;31.70;71.30;;;32.20;30.86;102135.66;4957281;28;20464;-76
2023/06/11 06:56:14;;;;;;;16.67;5.93;;;31.30;69.90;;;30.83;31.88;102106.88;4956222;28;20035;-76
2023/06/11 06:58:40;;;;;;;13.30;6.28;;;30.80;71.40;;;30.14;32.65;102106.31;4953206;28;20031;-75
2023/06/11 07:01:06;;;;;;;9.68;5.70;;;30.80;71.30;;;30.65;32.16;102093.47;4954051;28;20031;-76
2023/06/11 07:03:35;;;;;;;12.70;4.32;;;31.10;70.20;;;30.58;32.02;102095.16;4981927;28;21584;-76
2023/06/11 07:06:02;;;;;;;13.30;4.03;;;31.00;70.30;;;30.28;32.29;102089.38;4984241;28;20106;-76
2023/06/11 07:08:28;;;;;;;10.27;3.97;;;30.90;70.30;;;30.02;31.89;102093.06;4966726;28;20046;-77
2023/06/11 07:10:55;;;;;;;6.63;4.53;;;30.50;70.90;;;30.33;32.55;102084.28;4983188;28;20038;-76
2023/06/11 07:13:22;;;;;;;14.32;4.95;;;31.20;71.40;;;31.36;31.19;102094.53;4952233;28;20043;-76
2023/06/11 07:15:48;;;;;;;8.27;5.38;;;31.20;69.10;;;30.99;31.24;102097.84;4983225;28;20577;-76
2023/06/11 07:18:15;;;;;;;11.30;5.30;;;31.30;70.30;;;31.13;31.45;102097.16;4971107;28;20031;-76
2023/06/11 07:20:44;;;;;;;13.65;4.85;;;30.80;69.00;;;29.83;32.42;102091.47;4982453;28;20102;-76
2023/06/11 07:23:10;;;;;;;15.50;6.45;;;30.80;70.00;;;30.28;32.21;102089.38;4967613;28;20100;-75
2023/06/11 07:25:37;;;;;;;9.20;4.05;;;31.10;70.10;;;30.83;31.29;102101.44;4986119;28;20039;-75
2023/06/11 07:28:06;;;;;;;9.95;4.88;;;31.10;70.40;;;31.10;31.31;102093.91;4985234;28;20507;-76
2023/06/11 07:30:34;;;;;;;7.78;5.05;;;31.10;69.60;;;30.43;31.70;102090.41;4989413;28;20066;-77
2023/06/11 07:33:00;;;;;;;9.32;6.47;;;30.50;69.90;;;29.71;32.97;102081.09;4955063;28;20492;-76
2023/06/11 07:35:27;;;;;;;13.40;6.45;;;30.30;72.10;;;30.13;32.97;102077.44;4952131;28;20043;-75
2023/06/11 07:37:53;;;;;;;9.45;4.57;;;30.40;71.60;;;30.21;32.33;102077.44;4984153;28;20042;-77
2023/06/11 07:40:23;;;;;;;7.18;4.70;;;30.30;71.40;;;29.78;32.86;102073.97;4966885;28;20800;-76
2023/06/11 07:42:49;;;;;;;10.35;4.65;;;30.20;71.50;;;29.87;32.76;102072.13;4972297;28;20047;-76
2023/06/11 07:45:15;;;;;;;7.68;3.63;;;30.20;72.10;;;29.91;32.55;102077.06;4977275;28;20058;-76
2023/06/11 07:47:42;;;;;;;21.58;6.05;;;30.10;70.90;;;29.99;32.30;102087.09;4984546;28;20070;-76
2023/06/11 07:50:09;;;;;;;11.45;5.43;;;30.10;70.20;;;29.97;31.81;102080.97;4976619;28;20050;-76
2023/06/11 07:52:36;;;;;;;10.48;6.28;;;30.40;72.00;;;30.58;31.98;102084.28;4954109;28;20050;-75
2023/06/11 07:55:03;;;;;;;6.97;4.10;;;30.70;70.90;;;30.79;31.83;102084.59;4989252;28;20069;-75
2023/06/11 07:57:28;;;;;;;11.25;4.63;;;30.60;70.80;;;30.35;32.04;102071.38;4979479;28;20027;-76
2023/06/11 07:59:55;;;;;;;7.38;6.65;;;30.20;72.00;;;29.78;33.26;102063.97;4966136;28;20480;-76
2023/06/11 08:02:21;;;;;;;7.28;5.82;;;30.00;70.50;;;29.83;32.42;102063.50;4983815;28;20035;-76
2023/06/11 08:04:47;;;;;;;11.63;6.07;;;30.00;71.10;;;29.96;32.42;102063.00;4984313;28;20096;-75
2023/06/11 08:07:13;;;;;;;13.50;5.60;;;29.70;70.70;;;29.67;32.85;102053.38;4972791;28;20089;-75
2023/06/11 08:09:39;;;;;;;12.43;3.50;;;29.70;70.50;;;29.58;32.37;102057.09;4937477;28;21553;-77
2023/06/11 08:12:07;;;;;;;15.23;5.90;;;29.70;71.00;;;29.74;32.53;102053.59;4980640;28;20034;-76
2023/06/11 08:14:34;;;;;;;9.57;5.22;;;29.20;71.00;;;28.51;34.22;102029.41;4981783;28;20770;-76
2023/06/11 08:17:00;;;;;;;13.85;4.40;;;28.40;72.20;;;27.31;35.41;102008.03;4956118;28;20098;-76
2023/06/11 08:19:26;;;;;;;11.65;5.13;;;28.00;74.80;;;27.44;36.09;101995.00;4955159;28;20045;-76
2023/06/11 08:21:55;;;;;;;6.57;3.95;;;27.70;74.90;;;27.44;36.34;102003.09;4950463;28;20050;-76
2023/06/11 08:24:22;;;;;;;12.77;4.07;;;27.80;74.10;;;27.70;35.39;101996.97;4983573;28;20110;-76
2023/06/11 08:26:49;;;;;;;11.73;5.05;;;27.60;74.10;;;27.41;35.62;101996.16;4982539;28;20043;-75
2023/06/11 08:29:15;;;;;;;12.88;4.47;;;27.50;73.00;;;27.04;35.91;101977.25;4971243;28;20031;-76
2023/06/11 08:31:42;;;;;;;15.95;4.25;;;27.20;73.70;;;26.38;35.92;101983.53;4966619;28;20055;-76
2023/06/11 08:34:07;;;;;;;8.95;4.38;;;26.70;74.60;;;25.79;37.40;101964.63;4982223;28;20065;-76
2023/06/11 08:36:34;;;;;;;8.13;4.18;;;26.60;76.90;;;25.95;37.63;101958.69;4980375;28;20043;-76
2023/06/11 08:39:01;;;;;;;9.68;4.47;;;26.60;77.70;;;26.11;38.26;101957.25;4982944;28;20198;-76
2023/06/11 08:41:29;;;;;;;6.10;4.90;;;26.40;77.00;;;25.52;38.54;101950.97;4956005;28;20404;-77
2023/06/11 08:43:56;;;;;;;7.50;4.32;;;26.20;76.50;;;25.26;38.70;101939.88;4983765;28;20501;-75
2023/06/11 08:46:24;;;;;;;9.27;4.30;;;26.20;76.70;;;25.14;38.89;101948.03;4984414;28;20054;-76
2023/06/11 08:49:06;;;;;;;11.13;3.60;;;25.70;75.80;;;24.79;38.37;101944.91;5000304;28;20073;-77
2023/06/11 08:51:37;;;;;;;10.45;3.85;;;25.50;74.30;;;24.50;38.08;101938.41;4983449;28;20173;-76
2023/06/11 08:54:08;;;;;;;11.40;3.33;;;25.50;75.60;;;24.70;38.22;101936.66;4981333;28;20046;-76
2023/06/11 08:56:34;;;;;;;9.57;3.55;;;25.40;77.00;;;24.73;38.20;101927.44;4947055;28;20027;-75
2023/06/11 08:59:01;;;;;;;9.38;3.40;;;25.20;75.10;;;24.13;38.72;101924.53;4999915;28;20035;-76
2023/06/11 09:01:29;;;;;;;9.25;3.60;;;25.20;78.60;;;24.42;39.54;101924.72;4958620;28;20118;-76
2023/06/11 09:03:55;;;;;;;11.60;3.50;;;25.10;78.60;;;24.40;39.34;101921.28;4956491;28;20046;-75
2023/06/11 09:06:21;;;;;;;6.18;3.42;;;25.20;77.80;;;24.56;38.32;101920.88;4986403;28;24499;-76
2023/06/11 09:09:05;;;;;;;15.23;3.33;;;25.30;76.50;;;24.50;38.27;101916.00;4989832;28;20050;-76
2023/06/11 09:11:37;;;;;;;6.70;3.30;;;25.10;76.20;;;24.24;38.25;101919.09;4982735;28;20039;-77
2023/06/11 09:14:05;;;;;;;5.75;2.92;;;25.00;75.90;;;24.07;38.55;101907.06;4953696;28;20105;-76
2023/06/11 09:16:41;;;;;;;8.73;2.85;;;24.90;77.30;;;24.02;38.42;101916.53;4959699;28;20154;-76
2023/06/11 09:19:20;;;;;;;10.60;3.13;;;24.70;77.70;;;23.89;38.88;101917.56;4955053;28;20388;-76
2023/06/11 09:21:50;;;;;;;10.05;3.13;;;24.60;76.60;;;23.66;38.95;101911.38;4958063;28;20038;-76
2023/06/11 09:24:20;;;;;;;9.73;3.00;;;24.60;75.60;;;23.76;38.14;101911.53;4955330;28;20129;-76
2023/06/11 09:26:58;;;;;;;8.32;3.55;;;24.60;77.10;;;23.90;38.32;101913.88;4982003;28;20034;-75
2023/06/11 09:29:27;;;;;;;5.85;3.17;;;24.60;76.10;;;23.82;38.26;101916.34;4974712;28;20042;-80
2023/06/11 09:32:08;;;;;;;14.63;3.58;;;24.70;78.10;;;24.07;38.68;101907.06;4969556;28;20055;-76
2023/06/11 09:34:34;;;;;;;10.80;3.50;;;24.90;77.20;;;24.35;38.29;101920.84;4983335;28;20089;-77
2023/06/11 09:37:04;;;;;;;12.55;3.55;;;24.90;77.90;;;24.04;38.94;101909.16;4966983;28;20047;-75
2023/06/11 09:39:30;;;;;;;10.05;3.10;;;24.90;76.90;;;24.21;38.35;101913.97;4984845;28;20059;-75
2023/06/11 09:41:59;;;;;;;4.75;3.28;;;24.80;77.10;;;23.86;39.13;101916.97;4969310;28;20698;-76
2023/06/11 09:44:27;;;;;;;10.90;3.22;;;24.60;77.00;;;23.73;39.17;101904.50;5003645;28;20030;-76
2023/06/11 09:46:56;;;;;;;10.48;3.10;;;24.50;78.10;;;23.74;39.72;101913.44;4986166;28;20059;-76
2023/06/11 09:49:23;;;;;;;11.55;3.97;;;24.60;78.60;;;24.09;39.04;101918.56;4983304;28;20035;-76
2023/06/11 09:51:53;;;;;;;11.48;3.70;;;24.80;78.80;;;24.33;39.15;101910.22;4988192;28;20066;-76
2023/06/11 09:54:24;;;;;;;12.10;3.47;;;24.80;77.80;;;23.93;39.08;101919.03;4989816;28;20034;-76
2023/06/11 09:56:50;;;;;;;13.32;4.18;;;24.80;77.70;;;24.23;38.72;101921.91;4977248;28;20553;-76
2023/06/11 09:59:17;;;;;;;8.45;4.28;;;24.80;78.60;;;24.18;39.29;101937.59;4953899;28;20451;-75
2023/06/11 10:01:47;;;;;;;8.50;3.42;;;24.80;76.60;;;23.94;38.73;101928.78;4955072;28;20683;-76
2023/06/11 10:04:13;;;;;;;11.75;3.55;;;24.20;78.00;;;22.96;40.15;101918.00;4956711;28;20053;-76
2023/06/11 10:06:49;;;;;;;4.10;2.78;;;24.00;79.00;;;22.85;40.49;101907.25;4970396;28;20035;-77
2023/06/11 10:09:16;;;;;;;5.45;3.63;;;24.00;78.70;;;23.07;40.08;101909.97;4979131;28;20050;-76
2023/06/11 10:11:45;;;;;;;9.68;3.95;;;23.80;79.80;;;22.95;40.77;101902.84;4930273;28;20035;-76